sensor_id;sensor_type;location;lat;lon;timestamp;temperature;humidity
47857;DHT22;33618;49.972;8.242;2022-10-28T00:01:15;14.00;99.90
47857;DHT22;33618;49.972;8.242;2022-10-28T00:03:49;13.90;99.90
47857;DHT22;33618;49.972;8.242;2022-10-28T00:06:22;13.90;99.90
47857;DHT22;33618;49.972;8.242;2022-10-28T00:08:50;13.90;99.90
47857;DHT22;33618;49.972;8.242;2022-10-28T00:11:23;14.00;99.90
47857;DHT22;33618;49.972;8.242;2022-10-28T00:13:53;14.00;99.90
47857;DHT22;33618;49.972;8.242;2022-10-28T00:16:22;14.00;99.90
47857;DHT22;33618;49.972;8.242;2022-10-28T00:18:51;14.00;99.90
47857;DHT22;33618;49.972;8.242;2022-10-28T00:21:23;14.00;99.90
47857;DHT22;33618;49.972;8.242;2022-10-28T00:35:39;14.00;99.90
47857;DHT22;33618;49.972;8.242;2022-10-28T14:53:32;23.80;98.60
47857;DHT22;33618;49.972;8.242;2022-10-28T14:56:08;23.50;99.40
47857;DHT22;33618;49.972;8.242;2022-10-28T14:58:40;23.30;99.90
47857;DHT22;33618;49.972;8.242;2022-10-28T15:03:50;23.00;99.90
47857;DHT22;33618;49.972;8.242;2022-10-28T15:06:33;23.00;99.90
47857;DHT22;33618;49.972;8.242;2022-10-28T15:09:20;22.90;99.90
47857;DHT22;33618;49.972;8.242;2022-10-28T15:12:00;22.60;99.90
47857;DHT22;33618;49.972;8.242;2022-10-28T15:14:31;22.50;99.90
47857;DHT22;33618;49.972;8.242;2022-10-28T15:17:08;22.40;99.90
47857;DHT22;33618;49.972;8.242;2022-10-28T15:19:37;22.30;99.90
47857;DHT22;33618;49.972;8.242;2022-10-28T15:24:38;22.10;99.90
47857;DHT22;33618;49.972;8.242;2022-10-28T15:27:12;22.10;99.90
47857;DHT22;33618;49.972;8.242;2022-10-28T15:29:40;22.00;99.90
47857;DHT22;33618;49.972;8.242;2022-10-28T15:32:14;21.90;99.90
47857;DHT22;33618;49.972;8.242;2022-10-28T15:34:50;21.70;99.90
47857;DHT22;33618;49.972;8.242;2022-10-28T15:37:19;21.70;99.90
47857;DHT22;33618;49.972;8.242;2022-10-28T15:39:50;21.60;99.90
47857;DHT22;33618;49.972;8.242;2022-10-28T15:42:36;21.50;99.90
47857;DHT22;33618;49.972;8.242;2022-10-28T15:45:05;21.30;99.90
47857;DHT22;33618;49.972;8.242;2022-10-28T15:47:35;21.20;99.90
47857;DHT22;33618;49.972;8.242;2022-10-28T15:52:47;20.90;99.90
47857;DHT22;33618;49.972;8.242;2022-10-28T16:00:52;20.60;99.90
47857;DHT22;33618;49.972;8.242;2022-10-28T16:04:01;20.50;99.90
47857;DHT22;33618;49.972;8.242;2022-10-28T16:09:05;20.30;99.90
47857;DHT22;33618;49.972;8.242;2022-10-28T16:11:41;20.10;99.90
47857;DHT22;33618;49.972;8.242;2022-10-28T16:19:51;19.80;99.90
47857;DHT22;33618;49.972;8.242;2022-10-28T16:22:20;19.80;99.90
47857;DHT22;33618;49.972;8.242;2022-10-28T16:24:50;19.80;99.90
47857;DHT22;33618;49.972;8.242;2022-10-28T16:27:21;19.70;99.90
47857;DHT22;33618;49.972;8.242;2022-10-28T16:29:50;19.60;99.90
47857;DHT22;33618;49.972;8.242;2022-10-28T16:32:24;19.50;99.90
47857;DHT22;33618;49.972;8.242;2022-10-28T16:34:52;19.50;99.90
47857;DHT22;33618;49.972;8.242;2022-10-28T16:37:27;19.40;99.90
47857;DHT22;33618;49.972;8.242;2022-10-28T16:39:55;19.30;99.90
47857;DHT22;33618;49.972;8.242;2022-10-28T16:42:24;19.20;99.90
47857;DHT22;33618;49.972;8.242;2022-10-28T16:44:51;19.20;99.90
47857;DHT22;33618;49.972;8.242;2022-10-28T16:47:20;19.10;99.90
47857;DHT22;33618;49.972;8.242;2022-10-28T16:49:48;19.20;99.90
47857;DHT22;33618;49.972;8.242;2022-10-28T16:52:29;19.10;99.90
47857;DHT22;33618;49.972;8.242;2022-10-28T16:54:57;19.00;99.90
47857;DHT22;33618;49.972;8.242;2022-10-28T16:57:25;19.00;99.90
47857;DHT22;33618;49.972;8.242;2022-10-28T16:59:53;18.90;99.90
47857;DHT22;33618;49.972;8.242;2022-10-28T17:02:28;18.80;99.90
47857;DHT22;33618;49.972;8.242;2022-10-28T17:04:58;18.70;99.90
47857;DHT22;33618;49.972;8.242;2022-10-28T17:07:26;18.80;99.90
47857;DHT22;33618;49.972;8.242;2022-10-28T17:09:54;18.70;99.90
47857;DHT22;33618;49.972;8.242;2022-10-28T17:12:25;18.60;99.90
47857;DHT22;33618;49.972;8.242;2022-10-28T17:14:52;18.60;99.90
47857;DHT22;33618;49.972;8.242;2022-10-28T17:17:19;18.60;99.90
47857;DHT22;33618;49.972;8.242;2022-10-28T17:19:46;18.50;99.90
47857;DHT22;33618;49.972;8.242;2022-10-28T17:22:13;18.40;99.90
47857;DHT22;33618;49.972;8.242;2022-10-28T17:24:40;18.40;99.90
47857;DHT22;33618;49.972;8.242;2022-10-28T17:27:07;18.30;99.90
47857;DHT22;33618;49.972;8.242;2022-10-28T17:29:34;18.20;99.90
47857;DHT22;33618;49.972;8.242;2022-10-28T17:32:02;18.20;99.90
47857;DHT22;33618;49.972;8.242;2022-10-28T17:34:29;18.20;99.90
47857;DHT22;33618;49.972;8.242;2022-10-28T17:36:56;18.20;99.90
47857;DHT22;33618;49.972;8.242;2022-10-28T17:39:23;18.10;99.90
47857;DHT22;33618;49.972;8.242;2022-10-28T17:41:52;18.10;99.90
47857;DHT22;33618;49.972;8.242;2022-10-28T17:44:19;18.00;99.90
47857;DHT22;33618;49.972;8.242;2022-10-28T17:46:50;18.00;99.90
47857;DHT22;33618;49.972;8.242;2022-10-28T17:49:18;18.00;99.90
47857;DHT22;33618;49.972;8.242;2022-10-28T17:51:45;17.90;99.90
47857;DHT22;33618;49.972;8.242;2022-10-28T17:54:13;17.90;99.90
47857;DHT22;33618;49.972;8.242;2022-10-28T17:56:40;17.90;99.90
47857;DHT22;33618;49.972;8.242;2022-10-28T17:59:09;17.90;99.90
47857;DHT22;33618;49.972;8.242;2022-10-28T18:01:36;17.80;99.90
47857;DHT22;33618;49.972;8.242;2022-10-28T18:04:04;17.70;99.90
47857;DHT22;33618;49.972;8.242;2022-10-28T18:06:32;17.80;99.90
47857;DHT22;33618;49.972;8.242;2022-10-28T18:08:59;17.70;99.90
47857;DHT22;33618;49.972;8.242;2022-10-28T18:11:26;17.70;99.90
47857;DHT22;33618;49.972;8.242;2022-10-28T18:13:56;17.60;99.90
47857;DHT22;33618;49.972;8.242;2022-10-28T18:16:24;17.60;99.90
47857;DHT22;33618;49.972;8.242;2022-10-28T18:18:54;17.60;99.90
47857;DHT22;33618;49.972;8.242;2022-10-28T18:21:22;17.60;99.90
47857;DHT22;33618;49.972;8.242;2022-10-28T18:23:54;17.60;99.90
47857;DHT22;33618;49.972;8.242;2022-10-28T18:26:34;17.60;99.90
47857;DHT22;33618;49.972;8.242;2022-10-28T18:29:03;17.60;99.90
47857;DHT22;33618;49.972;8.242;2022-10-28T18:31:32;17.60;99.90
47857;DHT22;33618;49.972;8.242;2022-10-28T18:34:00;17.60;99.90
47857;DHT22;33618;49.972;8.242;2022-10-28T18:36:31;17.60;99.90
47857;DHT22;33618;49.972;8.242;2022-10-28T18:39:04;17.60;99.90
47857;DHT22;33618;49.972;8.242;2022-10-28T18:41:34;17.60;99.90
47857;DHT22;33618;49.972;8.242;2022-10-28T18:44:04;17.50;99.90
47857;DHT22;33618;49.972;8.242;2022-10-28T18:46:33;17.50;99.90
47857;DHT22;33618;49.972;8.242;2022-10-28T18:49:03;17.50;99.90
47857;DHT22;33618;49.972;8.242;2022-10-28T18:51:34;17.40;99.90
47857;DHT22;33618;49.972;8.242;2022-10-28T18:54:01;17.50;99.90
47857;DHT22;33618;49.972;8.242;2022-10-28T18:56:29;17.40;99.90
47857;DHT22;33618;49.972;8.242;2022-10-28T18:58:57;17.30;99.90
47857;DHT22;33618;49.972;8.242;2022-10-28T19:01:26;17.20;99.90
47857;DHT22;33618;49.972;8.242;2022-10-28T19:04:01;17.20;99.90
47857;DHT22;33618;49.972;8.242;2022-10-28T19:06:30;17.20;99.90
47857;DHT22;33618;49.972;8.242;2022-10-28T19:09:00;17.10;99.90
47857;DHT22;33618;49.972;8.242;2022-10-28T19:11:29;17.10;99.90
47857;DHT22;33618;49.972;8.242;2022-10-28T19:13:58;17.10;99.90
47857;DHT22;33618;49.972;8.242;2022-10-28T19:16:26;17.10;99.90
47857;DHT22;33618;49.972;8.242;2022-10-28T19:18:55;17.10;99.90
47857;DHT22;33618;49.972;8.242;2022-10-28T19:21:23;17.10;99.90
47857;DHT22;33618;49.972;8.242;2022-10-28T19:23:51;17.10;99.90
47857;DHT22;33618;49.972;8.242;2022-10-28T19:26:18;17.10;99.90
47857;DHT22;33618;49.972;8.242;2022-10-28T19:28:47;17.00;99.90
47857;DHT22;33618;49.972;8.242;2022-10-28T19:31:17;17.00;99.90
47857;DHT22;33618;49.972;8.242;2022-10-28T19:33:44;17.10;99.90
47857;DHT22;33618;49.972;8.242;2022-10-28T19:36:20;17.10;99.90
47857;DHT22;33618;49.972;8.242;2022-10-28T19:38:48;17.00;99.90
47857;DHT22;33618;49.972;8.242;2022-10-28T19:41:19;17.00;99.90
47857;DHT22;33618;49.972;8.242;2022-10-28T19:43:47;16.90;99.90
47857;DHT22;33618;49.972;8.242;2022-10-28T19:46:19;16.90;99.90
47857;DHT22;33618;49.972;8.242;2022-10-28T19:48:51;16.80;99.90
47857;DHT22;33618;49.972;8.242;2022-10-28T19:51:21;16.70;99.90
47857;DHT22;33618;49.972;8.242;2022-10-28T19:53:51;16.60;99.90
47857;DHT22;33618;49.972;8.242;2022-10-28T19:56:19;16.60;99.90
47857;DHT22;33618;49.972;8.242;2022-10-28T19:58:49;16.60;99.90
47857;DHT22;33618;49.972;8.242;2022-10-28T20:01:18;16.60;99.90
47857;DHT22;33618;49.972;8.242;2022-10-28T20:03:45;16.60;99.90
47857;DHT22;33618;49.972;8.242;2022-10-28T20:06:17;16.50;99.90
47857;DHT22;33618;49.972;8.242;2022-10-28T20:08:45;16.50;99.90
47857;DHT22;33618;49.972;8.242;2022-10-28T20:11:15;16.50;99.90
47857;DHT22;33618;49.972;8.242;2022-10-28T20:16:19;16.50;99.90
47857;DHT22;33618;49.972;8.242;2022-10-28T20:18:46;16.50;99.90
47857;DHT22;33618;49.972;8.242;2022-10-28T20:21:19;16.60;99.90
47857;DHT22;33618;49.972;8.242;2022-10-28T20:23:48;16.60;99.90
47857;DHT22;33618;49.972;8.242;2022-10-28T20:26:25;16.60;99.90
47857;DHT22;33618;49.972;8.242;2022-10-28T20:28:52;16.60;99.90
47857;DHT22;33618;49.972;8.242;2022-10-28T20:31:21;16.50;99.90
47857;DHT22;33618;49.972;8.242;2022-10-28T20:33:57;16.50;99.90
47857;DHT22;33618;49.972;8.242;2022-10-28T20:39:03;16.40;99.90
47857;DHT22;33618;49.972;8.242;2022-10-28T20:41:32;16.40;99.90
47857;DHT22;33618;49.972;8.242;2022-10-28T20:43:59;16.40;99.90
47857;DHT22;33618;49.972;8.242;2022-10-28T20:46:28;16.40;99.90
47857;DHT22;33618;49.972;8.242;2022-10-28T20:48:55;16.30;99.90
47857;DHT22;33618;49.972;8.242;2022-10-28T20:51:25;16.30;99.90
47857;DHT22;33618;49.972;8.242;2022-10-28T20:53:53;16.40;99.90
47857;DHT22;33618;49.972;8.242;2022-10-28T20:56:22;16.30;99.90
47857;DHT22;33618;49.972;8.242;2022-10-28T20:58:50;16.30;99.90
47857;DHT22;33618;49.972;8.242;2022-10-28T21:01:23;16.20;99.90
47857;DHT22;33618;49.972;8.242;2022-10-28T21:03:57;16.30;99.90
47857;DHT22;33618;49.972;8.242;2022-10-28T21:06:25;16.30;99.90
47857;DHT22;33618;49.972;8.242;2022-10-28T21:08:52;16.30;99.90
47857;DHT22;33618;49.972;8.242;2022-10-28T21:11:20;16.30;99.90
47857;DHT22;33618;49.972;8.242;2022-10-28T21:13:50;16.20;99.90
47857;DHT22;33618;49.972;8.242;2022-10-28T21:16:18;16.10;99.90
47857;DHT22;33618;49.972;8.242;2022-10-28T21:18:46;16.20;99.90
47857;DHT22;33618;49.972;8.242;2022-10-28T21:21:13;16.30;99.90
47857;DHT22;33618;49.972;8.242;2022-10-28T21:23:41;16.30;99.90
47857;DHT22;33618;49.972;8.242;2022-10-28T21:26:09;16.20;99.90
47857;DHT22;33618;49.972;8.242;2022-10-28T21:28:37;16.20;99.90
47857;DHT22;33618;49.972;8.242;2022-10-28T21:31:12;16.20;99.90
47857;DHT22;33618;49.972;8.242;2022-10-28T21:33:40;16.10;99.90
47857;DHT22;33618;49.972;8.242;2022-10-28T21:36:13;16.00;99.90
47857;DHT22;33618;49.972;8.242;2022-10-28T21:38:41;16.00;99.90
47857;DHT22;33618;49.972;8.242;2022-10-28T21:41:16;15.90;99.90
47857;DHT22;33618;49.972;8.242;2022-10-28T21:43:46;15.90;99.90
47857;DHT22;33618;49.972;8.242;2022-10-28T21:46:17;15.80;99.90
47857;DHT22;33618;49.972;8.242;2022-10-28T21:48:45;15.80;99.90
47857;DHT22;33618;49.972;8.242;2022-10-28T21:51:13;15.70;99.90
47857;DHT22;33618;49.972;8.242;2022-10-28T21:53:42;15.60;99.90
47857;DHT22;33618;49.972;8.242;2022-10-28T21:56:14;15.40;99.90
47857;DHT22;33618;49.972;8.242;2022-10-28T21:58:45;15.40;99.90
47857;DHT22;33618;49.972;8.242;2022-10-28T22:01:18;15.30;99.90
47857;DHT22;33618;49.972;8.242;2022-10-28T22:03:47;15.30;99.90
47857;DHT22;33618;49.972;8.242;2022-10-28T22:06:14;15.30;99.90
47857;DHT22;33618;49.972;8.242;2022-10-28T22:08:41;15.20;99.90
47857;DHT22;33618;49.972;8.242;2022-10-28T22:11:16;15.20;99.90
47857;DHT22;33618;49.972;8.242;2022-10-28T22:13:44;15.30;99.90
47857;DHT22;33618;49.972;8.242;2022-10-28T22:16:16;15.20;99.90
47857;DHT22;33618;49.972;8.242;2022-10-28T22:18:43;15.20;99.90
47857;DHT22;33618;49.972;8.242;2022-10-28T22:21:14;15.20;99.90
47857;DHT22;33618;49.972;8.242;2022-10-28T22:23:41;15.20;99.90
47857;DHT22;33618;49.972;8.242;2022-10-28T22:26:11;15.00;99.90
47857;DHT22;33618;49.972;8.242;2022-10-28T22:28:38;15.00;99.90
47857;DHT22;33618;49.972;8.242;2022-10-28T22:31:08;15.00;99.90
47857;DHT22;33618;49.972;8.242;2022-10-28T22:33:35;15.00;99.90
47857;DHT22;33618;49.972;8.242;2022-10-28T22:36:10;14.90;99.90
47857;DHT22;33618;49.972;8.242;2022-10-28T22:38:37;15.00;99.90
47857;DHT22;33618;49.972;8.242;2022-10-28T22:43:43;15.00;99.90
47857;DHT22;33618;49.972;8.242;2022-10-28T22:46:11;15.00;99.90
47857;DHT22;33618;49.972;8.242;2022-10-28T22:48:38;14.90;99.90
47857;DHT22;33618;49.972;8.242;2022-10-28T22:51:06;14.90;99.90
47857;DHT22;33618;49.972;8.242;2022-10-28T22:53:33;14.90;99.90
47857;DHT22;33618;49.972;8.242;2022-10-28T22:56:00;14.80;99.90
47857;DHT22;33618;49.972;8.242;2022-10-28T22:58:27;14.80;99.90
47857;DHT22;33618;49.972;8.242;2022-10-28T23:01:10;14.80;99.90
47857;DHT22;33618;49.972;8.242;2022-10-28T23:03:42;14.80;99.90
47857;DHT22;33618;49.972;8.242;2022-10-28T23:06:10;14.60;99.90
47857;DHT22;33618;49.972;8.242;2022-10-28T23:08:39;14.60;99.90
47857;DHT22;33618;49.972;8.242;2022-10-28T23:11:08;14.60;99.90
47857;DHT22;33618;49.972;8.242;2022-10-28T23:13:36;14.50;99.90
47857;DHT22;33618;49.972;8.242;2022-10-28T23:16:15;14.50;99.90
47857;DHT22;33618;49.972;8.242;2022-10-28T23:18:42;14.50;99.90
47857;DHT22;33618;49.972;8.242;2022-10-28T23:21:17;14.50;99.90
47857;DHT22;33618;49.972;8.242;2022-10-28T23:23:45;14.50;99.90
47857;DHT22;33618;49.972;8.242;2022-10-28T23:26:19;14.50;99.90
47857;DHT22;33618;49.972;8.242;2022-10-28T23:28:55;14.50;99.90
47857;DHT22;33618;49.972;8.242;2022-10-28T23:31:23;14.50;99.90
47857;DHT22;33618;49.972;8.242;2022-10-28T23:33:51;14.50;99.90
47857;DHT22;33618;49.972;8.242;2022-10-28T23:36:18;14.50;99.90
47857;DHT22;33618;49.972;8.242;2022-10-28T23:38:45;14.50;99.90
47857;DHT22;33618;49.972;8.242;2022-10-28T23:41:14;14.50;99.90
47857;DHT22;33618;49.972;8.242;2022-10-28T23:43:45;14.40;99.90
47857;DHT22;33618;49.972;8.242;2022-10-28T23:46:12;14.40;99.90
47857;DHT22;33618;49.972;8.242;2022-10-28T23:48:38;14.40;99.90
47857;DHT22;33618;49.972;8.242;2022-10-28T23:51:05;14.40;99.90
47857;DHT22;33618;49.972;8.242;2022-10-28T23:53:33;14.40;99.90
47857;DHT22;33618;49.972;8.242;2022-10-28T23:56:00;14.40;99.90
47857;DHT22;33618;49.972;8.242;2022-10-28T23:58:27;14.30;99.90
